createdAt,value
2022-11-28T00:01:25.263Z,102045.25
2022-11-28T00:03:52.204Z,102037.22
2022-11-28T00:06:19.483Z,102038.88
2022-11-28T00:08:46.461Z,102047.38
2022-11-28T00:11:15.881Z,102041.53
2022-11-28T00:13:43.741Z,102032.56
2022-11-28T00:16:21.519Z,102031.09
2022-11-28T00:18:53.533Z,102027.66
2022-11-28T00:21:20.971Z,102035.72
2022-11-28T00:23:48.955Z,102034.06
2022-11-28T00:26:23.496Z,102020.53
2022-11-28T00:28:51.122Z,102006.47
2022-11-28T00:31:27.666Z,102005.13
2022-11-28T00:33:55.600Z,102028.63
2022-11-28T00:36:23.462Z,102031.97
2022-11-28T00:38:51.156Z,101987.97
2022-11-28T00:41:23.679Z,102031.22
2022-11-28T00:43:51.774Z,102028.19
2022-11-28T00:46:20.514Z,102028.34
2022-11-28T00:48:47.701Z,102029.28
2022-11-28T00:51:19.294Z,102027.34
2022-11-28T00:53:50.059Z,102033.50
2022-11-28T00:56:19.787Z,102034.44
2022-11-28T00:58:49.769Z,102008.84
2022-11-28T01:01:23.196Z,102031.63
2022-11-28T01:03:52.392Z,102030.38
2022-11-28T01:06:23.997Z,102024.47
2022-11-28T01:08:51.964Z,102029.13
2022-11-28T01:11:19.490Z,102019.50
2022-11-28T01:13:46.489Z,102030.63
2022-11-28T01:16:13.588Z,101993.47
2022-11-28T01:18:40.649Z,102019.31
2022-11-28T01:21:07.993Z,102033.13
2022-11-28T01:23:35.868Z,102031.00
2022-11-28T01:26:06.765Z,102031.84
2022-11-28T01:28:34.459Z,102019.31
2022-11-28T01:31:09.413Z,102037.13
2022-11-28T01:33:36.406Z,102025.22
2022-11-28T01:36:03.482Z,102028.75
2022-11-28T01:38:30.472Z,102022.22
2022-11-28T01:40:57.996Z,101990.59
2022-11-28T01:43:25.473Z,102034.31
2022-11-28T01:45:52.708Z,102030.03
2022-11-28T01:48:29.427Z,102033.75
2022-11-28T01:51:00.079Z,102001.91
2022-11-28T01:53:31.085Z,102040.47
2022-11-28T01:56:02.400Z,102037.19
2022-11-28T01:58:30.960Z,102042.75
2022-11-28T02:00:58.483Z,102019.94
2022-11-28T02:03:33.774Z,102034.38
2022-11-28T02:06:00.948Z,102035.56
2022-11-28T02:08:35.139Z,102042.53
2022-11-28T02:11:29.022Z,102042.09
2022-11-28T02:14:23.622Z,102043.13
2022-11-28T02:16:50.476Z,102048.56
2022-11-28T02:19:43.284Z,102055.97
2022-11-28T02:22:34.732Z,102050.94
2022-11-28T02:25:10.918Z,102057.16
2022-11-28T02:28:01.391Z,102055.78
2022-11-28T02:31:05.121Z,102052.88
2022-11-28T02:33:55.222Z,102050.13
2022-11-28T02:36:37.279Z,102070.81
2022-11-28T02:39:30.230Z,102073.59
2022-11-28T02:42:18.356Z,102071.06
2022-11-28T02:44:59.045Z,102039.53
2022-11-28T02:47:44.481Z,102077.63
2022-11-28T02:50:22.115Z,102083.38
2022-11-28T02:52:53.794Z,102080.47
2022-11-28T02:55:21.530Z,102080.78
2022-11-28T02:57:53.530Z,102082.25
2022-11-28T03:00:31.593Z,102094.81
2022-11-28T03:03:32.481Z,102087.13
2022-11-28T03:06:19.050Z,102092.91
2022-11-28T03:09:17.135Z,102089.81
2022-11-28T03:12:02.468Z,102100.38
2022-11-28T03:14:53.844Z,102103.28
2022-11-28T03:17:56.418Z,102090.44
2022-11-28T03:20:26.686Z,102096.78
2022-11-28T03:23:17.397Z,102099.16
2022-11-28T03:25:56.501Z,102102.75
2022-11-28T03:28:43.348Z,102076.22
2022-11-28T03:31:15.887Z,102088.25
2022-11-28T03:33:48.670Z,102097.34
2022-11-28T03:36:21.003Z,102109.16
2022-11-28T03:39:04.896Z,102110.28
2022-11-28T03:41:38.586Z,102109.81
2022-11-28T03:44:10.890Z,102113.81
2022-11-28T03:46:45.326Z,102100.06
2022-11-28T03:49:15.792Z,102109.00
2022-11-28T03:51:53.115Z,102117.19
2022-11-28T03:54:26.076Z,102116.78
2022-11-28T03:56:55.931Z,102121.34
2022-11-28T03:59:33.584Z,102085.13
2022-11-28T04:02:22.321Z,102087.75
2022-11-28T04:04:58.787Z,102133.53
2022-11-28T04:07:43.035Z,102086.84
2022-11-28T04:10:27.391Z,102129.13
2022-11-28T04:12:59.437Z,102131.19
2022-11-28T04:15:26.241Z,102138.44
2022-11-28T04:18:13.700Z,102136.06
2022-11-28T04:20:59.132Z,102125.91
2022-11-28T04:23:27.787Z,102132.41
2022-11-28T04:26:00.664Z,102133.94
2022-11-28T04:28:31.592Z,102109.78
2022-11-28T04:31:02.385Z,102012.31
2022-11-28T04:33:33.197Z,102111.41
2022-11-28T04:36:01.736Z,102132.81
2022-11-28T04:38:31.387Z,102132.00
2022-11-28T04:41:15.649Z,102131.09
2022-11-28T04:43:50.087Z,102110.28
2022-11-28T04:46:22.408Z,102101.13
2022-11-28T04:48:49.406Z,102146.84
2022-11-28T04:51:25.066Z,102139.69
2022-11-28T04:54:10.837Z,102143.97
2022-11-28T04:56:45.671Z,102128.75
2022-11-28T04:59:14.587Z,102125.13
2022-11-28T05:01:44.230Z,102140.91
2022-11-28T05:04:12.582Z,102153.22
2022-11-28T05:06:39.614Z,102145.31
2022-11-28T05:09:07.020Z,102154.13
2022-11-28T05:11:33.940Z,102158.13
2022-11-28T05:14:00.871Z,102158.53
2022-11-28T05:16:27.951Z,102151.19
2022-11-28T05:18:54.888Z,102151.56
2022-11-28T05:21:21.936Z,102143.53
2022-11-28T05:23:49.165Z,102149.75
2022-11-28T05:26:18.757Z,102162.78
2022-11-28T05:28:47.740Z,102152.38
2022-11-28T05:31:15.089Z,102117.97
2022-11-28T05:33:42.098Z,102183.09
2022-11-28T05:36:13.161Z,102170.66
2022-11-28T05:38:40.964Z,102145.31
2022-11-28T05:41:08.164Z,102181.00
2022-11-28T05:43:35.330Z,102163.69
2022-11-28T05:46:05.479Z,102186.28
2022-11-28T05:48:32.416Z,102182.75
2022-11-28T05:50:59.330Z,102158.81
2022-11-28T05:53:26.277Z,102187.94
2022-11-28T05:55:53.172Z,102175.00
2022-11-28T05:58:20.037Z,102185.16
2022-11-28T06:00:47.052Z,102209.31
2022-11-28T06:03:14.055Z,102192.13
2022-11-28T06:05:43.999Z,102168.00
2022-11-28T06:08:12.484Z,102183.19
2022-11-28T06:10:39.960Z,102197.59
2022-11-28T06:13:07.064Z,102122.22
2022-11-28T06:15:38.007Z,102199.66
2022-11-28T06:18:06.351Z,102193.03
2022-11-28T06:20:35.822Z,102119.16
2022-11-28T06:23:02.829Z,102163.50
2022-11-28T06:25:29.842Z,102201.16
2022-11-28T06:27:56.877Z,102195.78
2022-11-28T06:30:23.995Z,102214.38
2022-11-28T06:32:50.897Z,102186.00
2022-11-28T06:35:18.002Z,102121.78
2022-11-28T06:37:44.874Z,102205.94
2022-11-28T06:40:11.979Z,102210.06
2022-11-28T06:42:39.412Z,102112.06
2022-11-28T06:45:06.940Z,102207.38
2022-11-28T06:47:33.922Z,102191.38
2022-11-28T06:50:00.952Z,102215.41
2022-11-28T06:52:29.023Z,102212.88
2022-11-28T06:54:55.917Z,102204.28
2022-11-28T06:57:23.059Z,102170.25
2022-11-28T06:59:50.758Z,102218.38
2022-11-28T07:02:17.722Z,102220.06
2022-11-28T07:04:44.687Z,102232.75
2022-11-28T07:07:16.087Z,102222.72
2022-11-28T07:09:44.234Z,102216.31
2022-11-28T07:12:11.361Z,102220.06
2022-11-28T07:14:38.425Z,102204.75
2022-11-28T07:17:05.568Z,102219.09
2022-11-28T07:19:32.625Z,102195.34
2022-11-28T07:22:00.130Z,102225.59
2022-11-28T07:24:30.161Z,102230.69
2022-11-28T07:26:57.370Z,102230.44
2022-11-28T07:29:24.706Z,102230.13
2022-11-28T07:31:51.754Z,102228.88
2022-11-28T07:34:18.670Z,102185.47
2022-11-28T07:36:45.536Z,102219.41
2022-11-28T07:39:16.128Z,102230.00
2022-11-28T07:41:43.209Z,102231.22
2022-11-28T07:44:11.379Z,102234.34
2022-11-28T07:46:39.315Z,102229.53
2022-11-28T07:49:06.255Z,102245.84
2022-11-28T07:51:34.019Z,102237.31
2022-11-28T07:54:02.127Z,102238.94
2022-11-28T07:56:57.285Z,102237.97
2022-11-28T07:59:19.035Z,102245.84
2022-11-28T08:01:45.937Z,102224.59
2022-11-28T08:04:12.872Z,102144.03
2022-11-28T08:06:41.980Z,102228.88
2022-11-28T08:09:09.342Z,102246.88
2022-11-28T08:11:36.559Z,102246.59
2022-11-28T08:14:04.463Z,102251.91
2022-11-28T08:16:32.582Z,102254.50
2022-11-28T08:19:03.266Z,102258.41
2022-11-28T08:21:33.205Z,102208.41
2022-11-28T08:24:02.036Z,102267.38
2022-11-28T08:26:30.980Z,102268.00
2022-11-28T08:28:59.910Z,102273.00
2022-11-28T08:31:32.788Z,102270.78
2022-11-28T08:34:01.544Z,102266.44
2022-11-28T08:36:29.477Z,102243.16
2022-11-28T08:39:16.583Z,102257.41
2022-11-28T08:41:44.983Z,102267.78
2022-11-28T08:44:11.875Z,102271.06
2022-11-28T08:46:38.813Z,102229.25
2022-11-28T08:49:05.715Z,102268.03
2022-11-28T08:51:32.770Z,102246.34
2022-11-28T08:54:00.330Z,102286.75
2022-11-28T08:56:27.811Z,102235.34
2022-11-28T08:58:55.221Z,102276.84
2022-11-28T09:01:24.669Z,102257.38
2022-11-28T09:03:52.703Z,102272.88
2022-11-28T09:06:21.119Z,102277.66
2022-11-28T09:08:49.875Z,102277.66
2022-11-28T09:11:19.460Z,102278.63
2022-11-28T09:13:46.419Z,102178.63
2022-11-28T09:16:14.626Z,102277.41
2022-11-28T09:18:41.654Z,102271.59
2022-11-28T09:21:10.866Z,102230.03
2022-11-28T09:23:39.700Z,102265.09
2022-11-28T09:26:14.998Z,102249.34
2022-11-28T09:28:42.628Z,102270.59
2022-11-28T09:31:12.456Z,102272.56
2022-11-28T09:33:39.739Z,102276.00
2022-11-28T09:36:16.568Z,102270.66
2022-11-28T09:38:43.838Z,102278.16
2022-11-28T09:41:29.638Z,102278.78
2022-11-28T09:44:07.018Z,102281.75
2022-11-28T09:46:37.400Z,102281.16
2022-11-28T09:49:25.417Z,102259.94
2022-11-28T09:52:02.928Z,102248.88
2022-11-28T09:54:49.085Z,102273.03
2022-11-28T09:57:24.152Z,102277.06
2022-11-28T09:59:51.075Z,102273.97
2022-11-28T10:03:10.896Z,102278.97
2022-11-28T10:05:58.554Z,102253.06
2022-11-28T10:08:28.045Z,102290.22
2022-11-28T10:11:15.102Z,102283.69
2022-11-28T10:14:19.122Z,102280.78
2022-11-28T10:17:12.971Z,102289.88
2022-11-28T10:19:54.446Z,102280.84
2022-11-28T10:22:43.367Z,102282.03
2022-11-28T10:25:22.785Z,102278.66
2022-11-28T10:27:51.000Z,102273.00
2022-11-28T10:30:27.182Z,102162.81
2022-11-28T10:33:18.349Z,102273.63
2022-11-28T10:35:51.783Z,102252.06
2022-11-28T10:38:25.581Z,102276.66
2022-11-28T10:41:14.554Z,102238.38
2022-11-28T10:44:22.912Z,102274.84
2022-11-28T10:47:06.973Z,102260.91
2022-11-28T10:50:04.508Z,102272.44
2022-11-28T10:52:44.580Z,102274.75
2022-11-28T10:55:48.374Z,102272.97
2022-11-28T10:58:27.501Z,102240.16
2022-11-28T11:00:58.203Z,102254.00
2022-11-28T11:03:31.438Z,102271.91
2022-11-28T11:05:59.765Z,102271.44
2022-11-28T11:08:29.628Z,102266.50
2022-11-28T11:11:08.651Z,102276.84
2022-11-28T11:13:58.958Z,102279.59
2022-11-28T11:16:26.191Z,102271.19
2022-11-28T11:18:55.254Z,102270.84
2022-11-28T11:21:27.220Z,102273.00
2022-11-28T11:24:16.710Z,102281.16
2022-11-28T11:26:47.108Z,102112.97
2022-11-28T11:29:31.036Z,102267.06
2022-11-28T11:32:03.673Z,102283.03
2022-11-28T11:34:36.893Z,102193.16
2022-11-28T11:37:28.605Z,102280.00
2022-11-28T11:39:55.659Z,102281.09
2022-11-28T11:42:28.532Z,102289.19
2022-11-28T11:44:56.536Z,102292.97
2022-11-28T11:47:44.318Z,102291.56
2022-11-28T11:50:20.683Z,102285.28
2022-11-28T11:53:09.491Z,102302.69
2022-11-28T11:55:58.395Z,102276.44
2022-11-28T11:58:39.470Z,102287.91
2022-11-28T12:01:08.080Z,102203.47
2022-11-28T12:04:08.554Z,102294.47
2022-11-28T12:06:51.570Z,102254.34
2022-11-28T12:09:47.092Z,102300.16
2022-11-28T12:12:23.038Z,102197.44
2022-11-28T12:14:50.557Z,102286.69
2022-11-28T12:17:47.929Z,102304.03
2022-11-28T12:20:36.377Z,102302.25
2022-11-28T12:23:32.423Z,102303.28
2022-11-28T12:26:02.244Z,102217.22
2022-11-28T12:28:59.708Z,102310.97
2022-11-28T12:32:10.715Z,102303.16
2022-11-28T12:34:56.041Z,102303.91
2022-11-28T12:37:55.241Z,102313.91
2022-11-28T12:40:46.713Z,102313.44
2022-11-28T12:43:41.437Z,102268.47
2022-11-28T12:46:42.345Z,102303.16
2022-11-28T12:49:36.504Z,102314.19
2022-11-28T12:52:18.611Z,102326.75
2022-11-28T12:54:57.930Z,102317.94
2022-11-28T12:57:42.774Z,102320.41
2022-11-28T13:00:14.912Z,102326.50
2022-11-28T13:02:57.429Z,102326.78
2022-11-28T13:05:39.485Z,102323.63
2022-11-28T13:08:43.274Z,102323.94
2022-11-28T13:11:45.724Z,102328.19
2022-11-28T13:14:21.319Z,102333.69
2022-11-28T13:16:55.622Z,102327.78
2022-11-28T13:19:51.298Z,102327.03
2022-11-28T13:22:25.345Z,102331.28
2022-11-28T13:25:19.220Z,102330.63
2022-11-28T13:27:59.567Z,102342.78
2022-11-28T13:30:29.464Z,102324.56
2022-11-28T13:33:13.162Z,102334.34
2022-11-28T13:35:45.200Z,102299.97
2022-11-28T13:38:37.300Z,102304.81
2022-11-28T13:42:05.876Z,102338.78
2022-11-28T13:44:35.539Z,102335.34
2022-11-28T13:47:25.038Z,102336.50
2022-11-28T13:49:51.981Z,102338.78
2022-11-28T13:52:18.915Z,102326.63
2022-11-28T13:54:54.226Z,102321.28
2022-11-28T13:57:28.692Z,102342.28
2022-11-28T14:00:18.315Z,102353.19
2022-11-28T14:03:00.051Z,102348.31
2022-11-28T14:05:35.946Z,102344.28
2022-11-28T14:08:04.903Z,102345.91
2022-11-28T14:11:25.808Z,102356.41
2022-11-28T14:14:04.039Z,102365.75
2022-11-28T14:16:58.539Z,102340.00
2022-11-28T14:19:38.244Z,102369.88
2022-11-28T14:22:09.969Z,102362.94
2022-11-28T14:24:55.409Z,102362.50
2022-11-28T14:27:33.710Z,102373.69
2022-11-28T14:30:01.765Z,102372.81
2022-11-28T14:32:38.035Z,102344.66
2022-11-28T14:35:15.490Z,102366.44
2022-11-28T14:37:55.725Z,102372.94
2022-11-28T14:40:57.007Z,102374.91
2022-11-28T14:43:24.146Z,102344.53
2022-11-28T14:45:52.861Z,102379.50
2022-11-28T14:48:23.108Z,102382.31
2022-11-28T14:51:00.579Z,102382.09
2022-11-28T14:53:38.593Z,102383.09
2022-11-28T14:56:14.433Z,102377.13
2022-11-28T14:58:49.384Z,102349.34
2022-11-28T15:01:28.739Z,102377.53
2022-11-28T15:04:14.494Z,102379.06
2022-11-28T15:06:43.585Z,102347.84
2022-11-28T15:09:13.863Z,102384.28
2022-11-28T15:12:14.059Z,102375.31
2022-11-28T15:14:42.660Z,102373.53
2022-11-28T15:17:13.885Z,102374.66
2022-11-28T15:19:47.785Z,102353.59
2022-11-28T15:22:41.417Z,102365.91
2022-11-28T15:25:23.967Z,102363.66
2022-11-28T15:27:51.665Z,102368.88
2022-11-28T15:30:26.471Z,102313.16
2022-11-28T15:32:58.868Z,102369.81
2022-11-28T15:35:26.870Z,102378.69
2022-11-28T15:37:58.177Z,102379.88
2022-11-28T15:40:32.783Z,102352.53
2022-11-28T15:43:02.291Z,102361.22
2022-11-28T15:45:32.422Z,102387.34
2022-11-28T15:47:59.541Z,102384.06
2022-11-28T15:50:29.627Z,102339.16
2022-11-28T15:53:18.133Z,102380.41
2022-11-28T15:55:46.235Z,102387.69
2022-11-28T15:58:21.739Z,102383.88
2022-11-28T16:00:58.331Z,102366.84
2022-11-28T16:03:29.640Z,102388.09
2022-11-28T16:05:59.234Z,102341.84
2022-11-28T16:08:34.834Z,102361.78
2022-11-28T16:11:05.767Z,102365.91
2022-11-28T16:13:34.251Z,102376.50
2022-11-28T16:16:04.264Z,102363.50
2022-11-28T16:18:31.873Z,102380.72
2022-11-28T16:21:01.271Z,102340.72
2022-11-28T16:23:36.322Z,102373.00
2022-11-28T16:26:29.684Z,102382.94
2022-11-28T16:29:17.135Z,102390.34
2022-11-28T16:31:44.770Z,102360.78
2022-11-28T16:34:15.048Z,102385.00
2022-11-28T16:36:50.193Z,102360.16
2022-11-28T16:39:18.082Z,102387.94
2022-11-28T16:42:04.935Z,102380.72
2022-11-28T16:44:33.668Z,102376.69
2022-11-28T16:47:01.137Z,102384.00
2022-11-28T16:49:51.600Z,102389.34
2022-11-28T16:52:21.738Z,102382.41
2022-11-28T16:54:49.655Z,102343.59
2022-11-28T16:57:17.591Z,102381.47
2022-11-28T16:59:45.214Z,102385.56
2022-11-28T17:02:24.581Z,102386.41
2022-11-28T17:04:53.268Z,102349.25
2022-11-28T17:07:23.591Z,102342.34
2022-11-28T17:09:51.244Z,102389.50
2022-11-28T17:12:27.705Z,102395.44
2022-11-28T17:14:55.804Z,102396.53
2022-11-28T17:17:23.843Z,102394.16
2022-11-28T17:19:51.905Z,102395.84
2022-11-28T17:22:22.283Z,102401.34
2022-11-28T17:24:55.630Z,102398.50
2022-11-28T17:27:22.824Z,102402.09
2022-11-28T17:29:49.882Z,102405.47
2022-11-28T17:32:17.197Z,102389.31
2022-11-28T17:34:46.181Z,102384.25
2022-11-28T17:37:13.344Z,102386.81
2022-11-28T17:40:00.751Z,102375.66
2022-11-28T17:42:27.908Z,102413.56
2022-11-28T17:44:55.085Z,102412.22
2022-11-28T17:47:23.896Z,102407.59
2022-11-28T17:49:51.332Z,102342.00
2022-11-28T17:52:20.350Z,102409.06
2022-11-28T17:54:49.380Z,102416.03
2022-11-28T17:57:16.479Z,102410.91
2022-11-28T17:59:43.587Z,102394.91
2022-11-28T18:02:13.525Z,102401.44
2022-11-28T18:04:41.197Z,102417.38
2022-11-28T18:07:09.053Z,102410.25
2022-11-28T18:09:36.240Z,102385.72
2022-11-28T18:12:03.562Z,102394.09
2022-11-28T18:14:36.580Z,102384.66
2022-11-28T18:17:07.012Z,102409.50
2022-11-28T18:19:34.270Z,102291.16
2022-11-28T18:22:01.824Z,102417.22
2022-11-28T18:24:28.867Z,102411.19
2022-11-28T18:26:56.018Z,102419.19
2022-11-28T18:29:22.940Z,102413.91
2022-11-28T18:31:50.498Z,102381.75
2022-11-28T18:34:17.571Z,102422.56
2022-11-28T18:36:45.148Z,102421.34
2022-11-28T18:39:14.649Z,102371.44
2022-11-28T18:41:42.386Z,102407.75
2022-11-28T18:44:11.108Z,102396.50
2022-11-28T18:46:40.375Z,102394.03
2022-11-28T18:49:08.505Z,102427.50
2022-11-28T18:51:35.832Z,102407.34
2022-11-28T18:54:05.235Z,102418.16
2022-11-28T18:56:35.704Z,102414.53
2022-11-28T18:59:04.303Z,102422.56
2022-11-28T19:01:34.091Z,102420.19
2022-11-28T19:04:11.648Z,102415.94
2022-11-28T19:06:40.789Z,102406.69
2022-11-28T19:09:11.583Z,102419.97
2022-11-28T19:11:40.457Z,102422.81
2022-11-28T19:14:08.112Z,102407.63
2022-11-28T19:16:37.803Z,102377.50
2022-11-28T19:19:06.209Z,102417.00
2022-11-28T19:21:36.337Z,102422.63
2022-11-28T19:24:04.300Z,102427.47
2022-11-28T19:26:33.558Z,102416.63
2022-11-28T19:29:01.778Z,102422.72
2022-11-28T19:31:33.065Z,102417.78
2022-11-28T19:34:14.060Z,102417.66
2022-11-28T19:36:43.484Z,102417.66
2022-11-28T19:39:22.361Z,102416.06
2022-11-28T19:41:51.423Z,102383.69
2022-11-28T19:44:21.209Z,102405.66
2022-11-28T19:46:50.630Z,102414.94
2022-11-28T19:49:20.162Z,102419.97
2022-11-28T19:51:49.455Z,102417.69
2022-11-28T19:54:21.963Z,102422.25
2022-11-28T19:56:49.529Z,102433.94
2022-11-28T19:59:17.231Z,102385.94
2022-11-28T20:01:44.402Z,102312.09
2022-11-28T20:04:12.364Z,102428.34
2022-11-28T20:06:39.311Z,102422.16
2022-11-28T20:09:09.307Z,102436.69
2022-11-28T20:11:41.900Z,102409.97
2022-11-28T20:14:19.026Z,102434.66
2022-11-28T20:16:46.940Z,102429.66
2022-11-28T20:19:15.715Z,102429.44
2022-11-28T20:21:44.909Z,102429.28
2022-11-28T20:24:12.347Z,102420.50
2022-11-28T20:26:42.566Z,102432.47
2022-11-28T20:29:13.622Z,102439.09
2022-11-28T20:31:46.913Z,102441.88
2022-11-28T20:34:17.860Z,102445.88
2022-11-28T20:36:46.259Z,102448.41
2022-11-28T20:39:13.527Z,102452.22
2022-11-28T20:41:40.560Z,102438.25
2022-11-28T20:44:07.609Z,102455.75
2022-11-28T20:46:35.662Z,102451.69
2022-11-28T20:49:05.640Z,102460.34
2022-11-28T20:51:34.567Z,102456.72
2022-11-28T20:54:04.798Z,102461.75
2022-11-28T20:56:46.487Z,102433.53
2022-11-28T20:59:22.027Z,102456.34
2022-11-28T21:01:49.077Z,102455.56
2022-11-28T21:04:17.754Z,102427.72
2022-11-28T21:06:47.268Z,102455.81
2022-11-28T21:09:15.345Z,102339.34
2022-11-28T21:11:56.690Z,102453.97
2022-11-28T21:14:25.599Z,102455.34
2022-11-28T21:16:52.580Z,102466.09
2022-11-28T21:19:19.534Z,102458.78
2022-11-28T21:21:46.500Z,102461.03
2022-11-28T21:24:14.226Z,102453.41
2022-11-28T21:26:46.578Z,102442.00
2022-11-28T21:29:15.092Z,102467.06
2022-11-28T21:31:44.249Z,102464.47
2022-11-28T21:34:15.660Z,102456.00
2022-11-28T21:36:43.692Z,102469.91
2022-11-28T21:39:14.202Z,102452.22
2022-11-28T21:41:41.292Z,102465.59
2022-11-28T21:44:09.034Z,102456.66
2022-11-28T21:46:35.993Z,102463.38
2022-11-28T21:49:02.970Z,102464.59
2022-11-28T21:51:29.898Z,102454.31
2022-11-28T21:54:00.319Z,102463.31
2022-11-28T21:56:27.489Z,102462.72
2022-11-28T21:58:54.923Z,102467.63
2022-11-28T22:01:24.362Z,102427.66
2022-11-28T22:03:53.462Z,102459.78
2022-11-28T22:06:25.043Z,102464.72
2022-11-28T22:08:53.761Z,102469.91
2022-11-28T22:11:22.157Z,102427.03
2022-11-28T22:13:49.587Z,102470.50
2022-11-28T22:16:22.148Z,102470.97
2022-11-28T22:18:50.752Z,102476.56
2022-11-28T22:24:05.952Z,102471.00
2022-11-28T22:26:33.227Z,102475.94
2022-11-28T22:29:01.163Z,102466.28
2022-11-28T22:31:28.290Z,102445.16
2022-11-28T22:33:55.718Z,102464.59
2022-11-28T22:36:23.734Z,102467.94
2022-11-28T22:38:55.908Z,102455.72
2022-11-28T22:41:28.788Z,102464.47
2022-11-28T22:44:01.185Z,102445.34
2022-11-28T22:46:30.773Z,102445.81
2022-11-28T22:49:00.720Z,102453.59
2022-11-28T22:51:29.028Z,102464.19
2022-11-28T22:53:58.314Z,102466.22
2022-11-28T22:56:27.804Z,102470.34
2022-11-28T22:58:55.230Z,102434.81
2022-11-28T23:01:26.107Z,102466.16
2022-11-28T23:03:54.362Z,102435.72
2022-11-28T23:06:28.464Z,102471.28
2022-11-28T23:08:57.166Z,102440.91
2022-11-28T23:11:29.398Z,102443.69
2022-11-28T23:13:57.040Z,102484.00
2022-11-28T23:16:27.612Z,102480.19
2022-11-28T23:18:56.943Z,102472.19
2022-11-28T23:21:25.905Z,102480.28
2022-11-28T23:23:54.001Z,102462.19
2022-11-28T23:26:24.421Z,102475.53
2022-11-28T23:28:53.007Z,102430.00
2022-11-28T23:31:24.266Z,102473.84
2022-11-28T23:33:52.069Z,102454.06
2022-11-28T23:36:21.928Z,102456.19
2022-11-28T23:38:51.968Z,102461.75
2022-11-28T23:41:19.278Z,102456.56
2022-11-28T23:43:46.876Z,102478.47
2022-11-28T23:46:15.955Z,102471.44
2022-11-28T23:48:46.284Z,102474.13
2022-11-28T23:51:14.582Z,102476.84
2022-11-28T23:53:42.234Z,102452.81
2022-11-28T23:56:12.965Z,102354.25
2022-11-28T23:58:40.457Z,102467.28
